• Join FlightAware (Why Join?)
  • Login
  • US Flag 
03:53PM EST


 

Airport Tracker/Info


-or-


 

Live Flight TrackerFlight Track Log ✈ ASQ5740 ✈ 14-Nov-2013 ✈ KIAD - KGSP

Flight Track Log - Related Links

Times and Time Zones

All times are in EST time to prevent confusion due to time zone crossing. See the ASQ5740 flight status page for this flight to view local times or setup timezone preferences in your user account.

Time Position Orientation Groundspeed Altitude Reporting Facility
EST Latitude Longitude Course Direction KTS MPH feet Rate Location/Type
01:07PM 38.9167 -77.4333 233° Southwest 164 189 1,900  Level Potomac TRACON
01:08PM 38.8500 -77.4333 180° South 242 278 3,600 2,400 Climbing Potomac TRACON
01:09PM 38.7833 -77.4167 169° South 277 319 6,700 2,700 Climbing Potomac TRACON
01:10PM 38.6545 -77.8297 226° Southwest  Level Estimated
01:11PM 38.5811 -77.9217 226° Southwest  Level Estimated
01:11PM 38.6589 -77.4686 198° South 279 321 10,900  Level Washington Center
01:11PM 38.5753 -77.4983 196° South 298 343 11,900 1,500 Climbing Washington Center
01:12PM 38.5076 -78.0135 233° Southwest  Level Estimated
01:13PM 38.4808 -77.5358 197° South 330 380 13,900  Level Washington Center
01:14PM 38.3903 -77.5836 202° Southwest 348 400 15,500 1,560 Climbing Washington Center
01:15PM 38.3261 -77.6772 229° Southwest 348 400 17,100 1,380 Climbing Washington Center
01:16PM 38.2619 -77.7758 230° Southwest 353 406 18,300 1,200 Climbing Washington Center
01:16PM 38.2039 -77.8614 229° Southwest 359 413 19,500 1,200 Climbing Washington Center
01:17PM 38.1394 -77.9600 230° Southwest 364 419 20,700 1,080 Climbing Washington Center
01:19PM 38.0728 -78.0633 231° Southwest 374 430 21,700 1,020 Climbing Washington Center
01:20PM 37.9994 -78.1717 229° Southwest 372 428 22,800 1,020 Climbing Washington Center
01:20PM 37.9411 -78.2669 232° Southwest 372 428 23,800 600 Climbing Washington Center
01:21PM 37.8681 -78.3669 227° Southwest 383 441 24,000 60 Climbing Washington Center
01:22PM 37.7858 -78.4875 229° Southwest 402 463 24,000  Level Washington Center
01:24PM 37.7125 -78.5922 229° Southwest 402 463 24,000  Level Washington Center
01:25PM 37.6367 -78.6994 228° Southwest 402 463 24,000 420 Level Washington Center
01:26PM 37.5631 -78.8039 228° Southwest 402 463 24,900 900 Climbing Washington Center
01:27PM 37.4892 -78.9081 228° Southwest 402 463 25,900 960 Climbing Washington Center
01:28PM 37.4242 -78.9994 228° Southwest 402 463 26,900 960 Climbing Washington Center
01:28PM 37.3503 -79.1006 227° Southwest 402 463 27,900 540 Climbing Washington Center
01:29PM 37.2742 -79.2014 227° Southwest 402 463 28,000  Climbing Washington Center
01:31PM 37.2042 -79.3078 230° Southwest 402 463 28,000  Level Washington Center
01:32PM 37.1319 -79.4164 230° Southwest 402 463 28,000  Level Washington Center
01:32PM 37.0575 -79.5269 230° Southwest 408 470 28,000  Level Washington Center
01:34PM 36.9739 -79.6503 230° Southwest 421 484 28,000  Level Washington Center
01:35PM 36.8972 -79.7631 230° Southwest 421 484 28,000  Level Washington Center
01:36PM 36.8222 -79.8731 230° Southwest 421 484 28,000  Level Washington Center
01:36PM 36.7408 -79.9878 229° Southwest 427 491 28,000  Level Washington Center
01:38PM 36.6247 -80.1589 230° Southwest 436 502 28,000  Level Atlanta Center
01:39PM 36.5447 -80.2661 227° Southwest 436 502 28,000 -420 Level Atlanta Center
01:40PM 36.4314 -80.3178 200° South 419 482 27,200 -900 Descending Atlanta Center
01:41PM 36.3139 -80.3567 195° South 425 489 26,200 -1,020 Descending Atlanta Center
01:42PM 36.2086 -80.3925 195° South 438 504 25,200 -960 Descending Atlanta Center
01:43PM 36.0928 -80.4311 195° South 438 504 24,300 -960 Descending Atlanta Center
01:44PM 35.9772 -80.4722 196° South 433 498 23,300 -1,020 Descending Atlanta Center
01:45PM 35.8617 -80.5106 195° South 433 498 22,300 -1,140 Descending Atlanta Center
01:46PM 35.7425 -80.5744 204° Southwest 428 493 21,100 -1,140 Descending Atlanta Center
01:47PM 35.6767 -80.6922 235° Southwest 422 486 20,100 -1,200 Descending Atlanta Center
01:48PM 35.6356 -80.7861 242° Southwest 417 480 19,000 -1,620 Descending Atlanta Center
01:48PM 35.6133 -80.8100 221° Southwest 403 464 18,500 -1,500 Descending Atlanta Center
01:49PM 35.5719 -80.9058 242° Southwest 387 445 17,500 1,500 Descending Atlanta Center
01:49PM 35.5556 -80.9219 219° Southwest 403 464 20,000 -1,680 Climbing Atlanta Center
01:50PM 35.5039 -81.0208 237° Southwest 403 464 15,500 -3,360 Descending Atlanta Center
01:51PM 35.4564 -81.1269 241° Southwest 378 435 14,000 -1,620 Descending Atlanta Center
01:51PM 35.4481 -81.1325 209° Southwest 398 458 13,900 -1,020 Descending Atlanta Center
01:52PM 35.3944 -81.2464 240° Southwest 358 412 12,900 -1,140 Descending Atlanta Center
01:52PM 35.3883 -81.2492 200° South 387 445 12,800 -1,140 Descending Atlanta Center
01:53PM 35.3364 -81.3553 239° Southwest 382 440 11,700 -1,200 Descending Atlanta Center
01:54PM 35.2822 -81.4564 237° Southwest 371 427 10,500 -840 Descending Atlanta Center
01:55PM 35.2361 -81.5442 237° Southwest 347 399 10,100 -780 Descending Atlanta Center
01:56PM 35.2000 -81.6267 242° Southwest 309 356 9,000 -600 Descending Atlanta Center
01:57PM 35.1661 -81.7039 242° Southwest 278 320 9,000  Level Atlanta Center
01:58PM 35.1342 -81.7836 244° Southwest 267 307 9,000 -420 Level Atlanta Center
01:59PM 35.0981 -81.8633 241° Southwest 267 307 8,200 -1,560 Descending Atlanta Center
02:00PM 35.0681 -81.9400 244° Southwest 262 302 5,900 -2,220 Descending Atlanta Center
02:01PM 35.0339 -82.0094 239° Southwest 257 296 3,800 -1,080 Descending Atlanta Center
02:02PM 35.0017 -82.0839 242° Southwest 257 296 3,800  Level Atlanta Center